Time;durP1;ratioP1;P1;durP2;ratioP2;P2;SDS_P1;SDS_P2;PMS_P1;PMS_P2;Temp;Humidity;BMP_temperature;BMP_pressure;BME280_temperature;BME280_humidity;BME280_pressure;Samples;Min_cycle;Max_cycle;Signal;HPM_P1;HPM_P2
2023/06/10 00:01:47;;;;;;;12.32;7.60;;;;;;;;;;5054397;28;20077;-79
2023/06/10 00:04:14;;;;;;;12.40;8.30;;;;;;;;;;5053308;28;20045;-78
2023/06/10 00:06:40;;;;;;;12.15;7.57;;;;;;;;;;5053570;28;20077;-77
2023/06/10 00:09:13;;;;;;;10.75;7.68;;;;;;;;;;5029094;28;20496;-78
2023/06/10 00:11:40;;;;;;;12.85;7.43;;;;;;;;;;5023572;28;20044;-79
2023/06/10 00:14:06;;;;;;;10.88;7.55;;;;;;;;;;5031891;28;20103;-79
2023/06/10 00:16:32;;;;;;;12.50;7.57;;;;;;;;;;5032660;28;20128;-79
2023/06/10 00:19:01;;;;;;;11.00;7.18;;;;;;;;;;5040722;28;20049;-78
2023/06/10 00:21:30;;;;;;;12.93;7.85;;;;;;;;;;5018474;28;20200;-78
2023/06/10 00:23:56;;;;;;;12.05;8.15;;;;;;;;;;5030484;28;20041;-78
2023/06/10 00:26:23;;;;;;;11.70;7.68;;;;;;;;;;5031694;28;20048;-78
2023/06/10 00:28:49;;;;;;;13.57;8.20;;;;;;;;;;5031342;28;20352;-78
2023/06/10 00:31:15;;;;;;;12.98;8.35;;;;;;;;;;5028283;28;20053;-78
2023/06/10 00:33:42;;;;;;;14.25;8.77;;;;;;;;;;5037452;28;20057;-79
2023/06/10 00:36:08;;;;;;;14.70;7.97;;;;;;;;;;5031303;28;20049;-78
2023/06/10 00:38:34;;;;;;;11.15;7.82;;;;;;;;;;5032275;28;20046;-79
2023/06/10 00:41:00;;;;;;;13.73;8.80;;;;;;;;;;5030898;28;20487;-79
2023/06/10 00:43:26;;;;;;;11.80;7.95;;;;;;;;;;5022623;28;20510;-79
2023/06/10 00:45:52;;;;;;;12.02;8.05;;;;;;;;;;5015477;28;20120;-79
2023/06/10 00:48:19;;;;;;;12.43;7.97;;;;;;;;;;5013624;28;20046;-78
2023/06/10 00:50:46;;;;;;;11.43;8.00;;;;;;;;;;5016144;28;20050;-78
2023/06/10 00:53:12;;;;;;;10.65;7.65;;;;;;;;;;5013554;28;20045;-78
2023/06/10 00:55:38;;;;;;;9.18;7.13;;;;;;;;;;5026387;28;20041;-78
2023/06/10 00:58:05;;;;;;;10.80;7.72;;;;;;;;;;5028036;28;20042;-78
2023/06/10 01:00:31;;;;;;;11.90;7.90;;;;;;;;;;5029507;28;20045;-78
2023/06/10 01:02:57;;;;;;;13.65;8.93;;;;;;;;;;5013544;28;20048;-78
2023/06/10 01:05:24;;;;;;;13.10;7.88;;;;;;;;;;5023397;28;20128;-77
2023/06/10 01:08:10;;;;;;;13.30;8.77;;;;;;;;;;5024659;28;20054;-78
2023/06/10 01:10:39;;;;;;;11.07;8.05;;;;;;;;;;5023325;28;20041;-78
2023/06/10 01:13:11;;;;;;;13.75;9.02;;;;;;;;;;5017813;28;20403;-78
2023/06/10 01:15:37;;;;;;;13.55;8.40;;;;;;;;;;5012982;28;20115;-78
2023/06/10 01:18:10;;;;;;;14.73;8.43;;;;;;;;;;5037736;28;20463;-78
2023/06/10 01:20:39;;;;;;;12.75;8.80;;;;;;;;;;5029915;28;20096;-78
2023/06/10 01:23:06;;;;;;;12.20;9.02;;;;;;;;;;5013406;28;20124;-79
2023/06/10 01:25:36;;;;;;;15.30;8.55;;;;;;;;;;5028175;28;20049;-79
2023/06/10 01:28:15;;;;;;;12.32;8.23;;;;;;;;;;5027681;28;20120;-78
2023/06/10 01:30:45;;;;;;;12.70;8.32;;;;;;;;;;5017691;28;20122;-77
2023/06/10 01:33:12;;;;;;;12.63;8.07;;;;;;;;;;5033397;28;20093;-79
2023/06/10 01:35:39;;;;;;;13.43;8.00;;;;;;;;;;5016966;28;20100;-78
2023/06/10 01:38:05;;;;;;;12.23;8.75;;;;;;;;;;5037836;28;20120;-78
2023/06/10 01:40:31;;;;;;;16.27;8.40;;;;;;;;;;5032600;28;20042;-79
2023/06/10 01:42:57;;;;;;;11.52;7.55;;;;;;;;;;5025583;28;20052;-79
2023/06/10 01:45:23;;;;;;;16.00;8.35;;;;;;;;;;5039057;28;20142;-79
2023/06/10 01:47:49;;;;;;;14.18;8.65;;;;;;;;;;5032257;28;20380;-79
2023/06/10 01:50:16;;;;;;;11.52;7.70;;;;;;;;;;5031804;28;20072;-79
2023/06/10 01:52:42;;;;;;;13.27;8.80;;;;;;;;;;5031597;28;20123;-79
2023/06/10 01:55:08;;;;;;;10.57;7.68;;;;;;;;;;5032761;28;20056;-79
2023/06/10 01:57:34;;;;;;;14.35;8.52;;;;;;;;;;5049301;28;20110;-78
2023/06/10 02:00:00;;;;;;;13.93;9.15;;;;;;;;;;5052468;28;20411;-78
2023/06/10 02:02:26;;;;;;;12.18;8.25;;;;;;;;;;5034439;28;20547;-79
2023/06/10 02:04:52;;;;;;;13.65;8.52;;;;;;;;;;5008804;28;20042;-78
2023/06/10 02:07:18;;;;;;;8.95;7.68;;;;;;;;;;5010939;28;20484;-79
2023/06/10 02:09:45;;;;;;;11.05;8.00;;;;;;;;;;5010111;28;20130;-79
2023/06/10 02:12:11;;;;;;;11.52;7.82;;;;;;;;;;5007005;28;20049;-79
2023/06/10 02:14:37;;;;;;;12.20;8.00;;;;;;;;;;5010765;28;20353;-79
2023/06/10 02:17:04;;;;;;;12.40;8.43;;;;;;;;;;5012615;28;20046;-78
2023/06/10 02:19:30;;;;;;;10.85;7.85;;;;;;;;;;5008448;28;20683;-78
2023/06/10 02:21:56;;;;;;;11.50;8.32;;;;;;;;;;5009922;28;20767;-78
2023/06/10 02:24:22;;;;;;;12.52;7.85;;;;;;;;;;5022140;28;21363;-78
2023/06/10 02:26:49;;;;;;;9.63;7.55;;;;;;;;;;5023242;28;20402;-78
2023/06/10 02:29:15;;;;;;;12.38;7.88;;;;;;;;;;5030586;28;20055;-78
2023/06/10 02:31:41;;;;;;;10.40;7.30;;;;;;;;;;5039502;28;20054;-79
2023/06/10 02:34:07;;;;;;;10.45;7.38;;;;;;;;;;5031405;28;20053;-78
2023/06/10 02:36:35;;;;;;;11.05;7.38;;;;;;;;;;5038126;28;20399;-78
2023/06/10 02:39:02;;;;;;;9.50;7.47;;;;;;;;;;5036413;28;20063;-79
2023/06/10 02:41:28;;;;;;;11.38;7.20;;;;;;;;;;5037351;28;20533;-78
2023/06/10 02:43:54;;;;;;;9.23;6.72;;;;;;;;;;5037272;28;20045;-78
2023/06/10 02:46:21;;;;;;;10.20;7.30;;;;;;;;;;5054338;28;20080;-78
2023/06/10 02:48:49;;;;;;;10.60;7.18;;;;;;;;;;5030395;28;20151;-78
2023/06/10 02:51:15;;;;;;;11.52;7.75;;;;;;;;;;5031555;28;20511;-78
2023/06/10 02:53:41;;;;;;;10.38;7.10;;;;;;;;;;5036465;28;20054;-78
2023/06/10 02:56:07;;;;;;;11.50;6.85;;;;;;;;;;5019638;28;20439;-78
2023/06/10 02:58:33;;;;;;;10.40;6.40;;;;;;;;;;5021991;28;20073;-78
2023/06/10 03:00:59;;;;;;;9.38;7.30;;;;;;;;;;5024292;28;20038;-78
2023/06/10 03:03:27;;;;;;;10.77;7.20;;;;;;;;;;5022920;28;20046;-78
2023/06/10 03:05:53;;;;;;;11.43;6.68;;;;;;;;;;5044282;28;20091;-78
2023/06/10 03:08:19;;;;;;;9.43;6.63;;;;;;;;;;5022830;28;20474;-78
2023/06/10 03:10:45;;;;;;;11.93;7.30;;;;;;;;;;5026908;28;20041;-79
2023/06/10 03:13:11;;;;;;;10.55;7.60;;;;;;;;;;5035712;28;20056;-79
2023/06/10 03:15:37;;;;;;;10.93;7.03;;;;;;;;;;5034047;28;20045;-79
2023/06/10 03:18:03;;;;;;;10.80;7.18;;;;;;;;;;5034292;28;20038;-79
2023/06/10 03:20:29;;;;;;;10.68;6.53;;;;;;;;;;5020305;28;20050;-79
2023/06/10 03:22:55;;;;;;;9.73;6.45;;;;;;;;;;5037635;28;20077;-79
2023/06/10 03:25:22;;;;;;;11.32;6.75;;;;;;;;;;5020415;28;20106;-79
2023/06/10 03:27:48;;;;;;;12.93;6.50;;;;;;;;;;5020568;28;20056;-79
2023/06/10 03:30:14;;;;;;;8.73;6.13;;;;;;;;;;5036958;28;20415;-79
2023/06/10 03:32:40;;;;;;;9.98;6.53;;;;;;;;;;5027780;28;20057;-79
2023/06/10 03:35:07;;;;;;;10.57;7.10;;;;;;;;;;5042678;28;20051;-79
2023/06/10 03:37:33;;;;;;;11.05;6.95;;;;;;;;;;5038048;28;20057;-78
2023/06/10 03:39:59;;;;;;;10.20;6.40;;;;;;;;;;5035865;28;20042;-78
2023/06/10 03:42:25;;;;;;;8.80;7.05;;;;;;;;;;5036979;28;20398;-78
2023/06/10 03:44:51;;;;;;;10.77;7.25;;;;;;;;;;5056032;28;20053;-78
2023/06/10 03:47:17;;;;;;;10.32;6.95;;;;;;;;;;5056004;28;20049;-78
2023/06/10 03:49:43;;;;;;;11.70;7.18;;;;;;;;;;5044653;28;20392;-78
2023/06/10 03:52:09;;;;;;;10.80;6.53;;;;;;;;;;5037766;28;20049;-78
2023/06/10 03:54:35;;;;;;;9.55;7.20;;;;;;;;;;5038307;28;20103;-78
2023/06/10 03:57:02;;;;;;;11.65;6.70;;;;;;;;;;5035302;28;20045;-79
2023/06/10 03:59:29;;;;;;;10.40;6.90;;;;;;;;;;5021426;28;20128;-79
2023/06/10 04:01:55;;;;;;;10.27;6.97;;;;;;;;;;5017132;28;20056;-79
2023/06/10 04:04:21;;;;;;;12.90;7.30;;;;;;;;;;5015119;28;20447;-78
2023/06/10 04:06:48;;;;;;;11.68;7.35;;;;;;;;;;5025310;28;20049;-79
2023/06/10 04:09:15;;;;;;;15.70;7.70;;;;;;;;;;5034799;28;20115;-79
2023/06/10 04:11:41;;;;;;;12.93;8.02;;;;;;;;;;5028893;28;20077;-78
2023/06/10 04:14:08;;;;;;;11.52;7.82;;;;;;;;;;5029523;28;20085;-78
2023/06/10 04:16:35;;;;;;;12.48;8.13;;;;;;;;;;5026720;28;20529;-78
2023/06/10 04:19:01;;;;;;;11.95;7.50;;;;;;;;;;5036166;28;20503;-78
2023/06/10 04:21:27;;;;;;;13.52;7.88;;;;;;;;;;5034029;28;20041;-79
2023/06/10 04:23:53;;;;;;;15.43;8.32;;;;;;;;;;5017086;28;20125;-79
2023/06/10 04:26:20;;;;;;;14.30;8.02;;;;;;;;;;5018267;28;20092;-78
2023/06/10 04:28:46;;;;;;;14.40;8.48;;;;;;;;;;5029405;28;20038;-79
2023/06/10 04:31:12;;;;;;;12.88;8.27;;;;;;;;;;5022162;28;20511;-79
2023/06/10 04:33:38;;;;;;;16.13;8.18;;;;;;;;;;5024247;28;20053;-79
2023/06/10 04:36:06;;;;;;;11.45;8.20;;;;;;;;;;5016315;28;20084;-79
2023/06/10 04:38:32;;;;;;;15.65;8.55;;;;;;;;;;5021223;28;20045;-79
2023/06/10 04:40:58;;;;;;;16.52;8.80;;;;;;;;;;5024329;28;20044;-79
2023/06/10 04:43:24;;;;;;;13.50;7.65;;;;;;;;;;5019482;28;20414;-79
2023/06/10 04:45:50;;;;;;;15.07;9.30;;;;;;;;;;5040723;28;20042;-79
2023/06/10 04:48:17;;;;;;;12.60;8.43;;;;;;;;;;5014050;28;20399;-79
2023/06/10 04:50:43;;;;;;;15.30;8.63;;;;;;;;;;5014285;28;20105;-79
2023/06/10 04:53:09;;;;;;;12.18;8.00;;;;;;;;;;5018890;28;20131;-78
2023/06/10 04:55:36;;;;;;;12.23;7.65;;;;;;;;;;5025584;28;20048;-79
2023/06/10 04:58:02;;;;;;;13.48;7.93;;;;;;;;;;5038365;28;20080;-79
2023/06/10 05:00:28;;;;;;;13.75;7.82;;;;;;;;;;5043911;28;20087;-80
2023/06/10 05:02:55;;;;;;;14.48;7.97;;;;;;;;;;5038997;28;20468;-79
2023/06/10 05:05:22;;;;;;;15.95;8.40;;;;;;;;;;5028221;28;20057;-79
2023/06/10 05:07:48;;;;;;;10.65;7.38;;;;;;;;;;5028005;28;21418;-79
2023/06/10 05:10:14;;;;;;;11.55;7.35;;;;;;;;;;5036757;28;20106;-79
2023/06/10 05:12:41;;;;;;;12.05;6.90;;;;;;;;;;5026523;28;20054;-79
2023/06/10 05:15:07;;;;;;;10.52;7.75;;;;;;;;;;5014218;28;20053;-79
2023/06/10 05:17:34;;;;;;;14.60;7.80;;;;;;;;;;5020531;28;20073;-79
2023/06/10 05:20:00;;;;;;;10.43;7.00;;;;;;;;;;5017334;28;20038;-79
2023/06/10 05:22:27;;;;;;;11.77;7.25;;;;;;;;;;5015446;28;20038;-79
2023/06/10 05:24:53;;;;;;;11.30;7.35;;;;;;;;;;5015301;28;20049;-80
2023/06/10 05:27:19;;;;;;;11.70;7.22;;;;;;;;;;5016828;28;20169;-80
2023/06/10 05:29:46;;;;;;;12.77;6.57;;;;;;;;;;5024579;28;20041;-79
2023/06/10 05:32:12;;;;;;;9.90;6.40;;;;;;;;;;5041872;28;20147;-80
2023/06/10 05:34:38;;;;;;;12.32;6.97;;;;;;;;;;5055023;28;20049;-80
2023/06/10 05:37:04;;;;;;;12.52;7.20;;;;;;;;;;5043788;28;20075;-80
2023/06/10 05:39:30;;;;;;;12.60;6.93;;;;;;;;;;5054792;28;20478;-80
2023/06/10 05:41:58;;;;;;;13.02;7.13;;;;;;;;;;5053517;28;20118;-79
2023/06/10 05:44:25;;;;;;;8.70;6.32;;;;;;;;;;5050729;28;20053;-79
2023/06/10 05:46:51;;;;;;;13.80;7.30;;;;;;;;;;5052501;28;20098;-78
2023/06/10 05:49:17;;;;;;;11.18;6.95;;;;;;;;;;5038943;28;20120;-79
2023/06/10 05:51:43;;;;;;;15.85;7.07;;;;;;;;;;5033041;28;20069;-78
2023/06/10 05:54:09;;;;;;;10.02;6.72;;;;;;;;;;5055914;28;20041;-78
2023/06/10 05:56:35;;;;;;;9.43;6.50;;;;;;;;;;5027302;28;20053;-81
2023/06/10 05:59:02;;;;;;;12.45;7.10;;;;;;;;;;5049770;28;20518;-77
2023/06/10 06:01:28;;;;;;;10.95;6.82;;;;;;;;;;5049016;28;20041;-77
2023/06/10 06:03:54;;;;;;;13.20;7.05;;;;;;;;;;5048141;28;20041;-77
2023/06/10 06:06:23;;;;;;;9.60;6.10;;;;;;;;;;5028979;28;20056;-77
2023/06/10 06:08:49;;;;;;;11.00;6.72;;;;;;;;;;5022060;28;20046;-77
2023/06/10 06:11:15;;;;;;;12.15;6.97;;;;;;;;;;5020637;28;20056;-77
2023/06/10 06:13:41;;;;;;;10.57;6.50;;;;;;;;;;5016349;28;20041;-77
2023/06/10 06:16:08;;;;;;;10.57;6.47;;;;;;;;;;5018532;28;20158;-77
2023/06/10 06:18:34;;;;;;;12.98;6.47;;;;;;;;;;5031802;28;20146;-77
2023/06/10 06:21:00;;;;;;;9.98;6.95;;;;;;;;;;5024425;28;20388;-77
2023/06/10 06:23:26;;;;;;;11.85;6.72;;;;;;;;;;5026831;28;20369;-77
2023/06/10 06:25:52;;;;;;;10.77;6.72;;;;;;;;;;5041936;28;20037;-77
2023/06/10 06:28:20;;;;;;;10.02;6.43;;;;;;;;;;5053255;28;20057;-77
2023/06/10 06:30:46;;;;;;;10.27;6.65;;;;;;;;;;5021497;28;20476;-77
2023/06/10 06:33:13;;;;;;;9.48;6.25;;;;;;;;;;5028826;28;20049;-77
2023/06/10 06:35:40;;;;;;;11.65;6.75;;;;;;;;;;5022969;28;20115;-77
2023/06/10 06:38:06;;;;;;;11.68;6.60;;;;;;;;;;5018746;28;20061;-77
2023/06/10 06:40:32;;;;;;;9.75;6.18;;;;;;;;;;5019364;28;20042;-77
2023/06/10 06:42:58;;;;;;;13.07;6.72;;;;;;;;;;5019622;28;20037;-77
2023/06/10 06:45:24;;;;;;;10.65;6.63;;;;;;;;;;5040186;28;20049;-77
2023/06/10 06:47:51;;;;;;;10.70;6.45;;;;;;;;;;5043776;28;21689;-77
2023/06/10 06:50:17;;;;;;;11.60;6.53;;;;;;;;;;5024847;28;20056;-78
2023/06/10 06:52:43;;;;;;;9.77;6.45;;;;;;;;;;5032585;28;20065;-77
2023/06/10 06:55:09;;;;;;;11.93;6.45;;;;;;;;;;5018315;28;20052;-77
2023/06/10 06:57:36;;;;;;;11.30;6.40;;;;;;;;;;5021906;28;20065;-77
2023/06/10 07:00:02;;;;;;;9.95;6.70;;;;;;;;;;5017184;28;20053;-77
2023/06/10 07:02:28;;;;;;;10.52;6.57;;;;;;;;;;5033826;28;20461;-77
2023/06/10 07:04:55;;;;;;;11.45;6.20;;;;;;;;;;5020173;28;20455;-77
2023/06/10 07:07:22;;;;;;;9.20;5.72;;;;;;;;;;5014285;28;20054;-77
2023/06/10 07:09:48;;;;;;;10.20;5.95;;;;;;;;;;5021207;28;21320;-77
2023/06/10 07:12:14;;;;;;;10.93;6.47;;;;;;;;;;5031783;28;20038;-78
2023/06/10 07:14:40;;;;;;;12.68;6.32;;;;;;;;;;5044105;28;20495;-78
2023/06/10 07:17:06;;;;;;;9.30;5.93;;;;;;;;;;5035781;28;20353;-80
2023/06/10 07:19:32;;;;;;;11.05;6.03;;;;;;;;;;5041808;28;20044;-78
2023/06/10 07:21:58;;;;;;;9.80;5.38;;;;;;;;;;5054893;28;20045;-78
2023/06/10 07:24:24;;;;;;;7.55;5.50;;;;;;;;;;5053893;28;20450;-78
2023/06/10 07:26:51;;;;;;;9.07;6.10;;;;;;;;;;5045760;28;20048;-78
2023/06/10 07:29:17;;;;;;;10.13;5.80;;;;;;;;;;5024358;28;20509;-78
2023/06/10 07:31:43;;;;;;;8.88;6.20;;;;;;;;;;5022208;28;20073;-78
2023/06/10 07:34:09;;;;;;;7.97;5.82;;;;;;;;;;5026849;28;20041;-78
2023/06/10 07:36:36;;;;;;;8.63;5.97;;;;;;;;;;5033369;28;20044;-78
2023/06/10 07:39:02;;;;;;;8.05;5.68;;;;;;;;;;5034330;28;20050;-78
2023/06/10 07:41:28;;;;;;;8.68;5.53;;;;;;;;;;5034264;28;20049;-78
2023/06/10 07:43:55;;;;;;;9.18;5.60;;;;;;;;;;5033915;28;20229;-78
2023/06/10 07:46:22;;;;;;;9.27;5.65;;;;;;;;;;5031177;28;20049;-77
2023/06/10 07:48:48;;;;;;;9.05;5.10;;;;;;;;;;5033660;28;20084;-78
2023/06/10 07:51:15;;;;;;;7.47;5.57;;;;;;;;;;5016169;28;20129;-78
2023/06/10 07:53:41;;;;;;;7.57;5.05;;;;;;;;;;5014709;28;20559;-78
2023/06/10 07:56:08;;;;;;;10.80;5.57;;;;;;;;;;5014928;28;20129;-78
2023/06/10 07:58:34;;;;;;;8.10;5.30;;;;;;;;;;5022354;28;20048;-78
2023/06/10 08:01:00;;;;;;;9.43;5.55;;;;;;;;;;5029843;28;20046;-78
2023/06/10 08:03:26;;;;;;;9.45;5.53;;;;;;;;;;5032976;28;20504;-78
2023/06/10 08:05:52;;;;;;;10.68;6.00;;;;;;;;;;5035991;28;20124;-77
2023/06/10 08:08:18;;;;;;;6.68;5.22;;;;;;;;;;5034821;28;20494;-78
2023/06/10 08:10:44;;;;;;;8.88;5.45;;;;;;;;;;5034390;28;20131;-78
2023/06/10 08:13:10;;;;;;;10.13;5.55;;;;;;;;;;5034384;28;20042;-78
2023/06/10 08:15:36;;;;;;;8.60;5.47;;;;;;;;;;5036931;28;20037;-78
2023/06/10 08:18:02;;;;;;;8.00;5.30;;;;;;;;;;5036131;28;20068;-78
2023/06/10 08:20:28;;;;;;;7.07;5.10;;;;;;;;;;5032811;28;20084;-78
2023/06/10 08:22:54;;;;;;;6.40;5.15;;;;;;;;;;5023592;28;20073;-78
2023/06/10 08:25:22;;;;;;;7.03;5.15;;;;;;;;;;5023627;28;20045;-78
2023/06/10 08:27:48;;;;;;;7.88;5.57;;;;;;;;;;5033771;28;20053;-78
2023/06/10 08:30:14;;;;;;;8.18;5.22;;;;;;;;;;5030266;28;20088;-78
2023/06/10 08:32:40;;;;;;;7.93;5.10;;;;;;;;;;5028238;28;20663;-78
2023/06/10 08:35:06;;;;;;;8.57;5.75;;;;;;;;;;5020606;28;20061;-78
2023/06/10 08:37:32;;;;;;;8.45;5.35;;;;;;;;;;5024049;28;20137;-78
2023/06/10 08:39:58;;;;;;;8.45;5.60;;;;;;;;;;5028188;28;20117;-78
2023/06/10 08:42:42;;;;;;;9.50;5.47;;;;;;;;;;5025439;28;20148;-78
2023/06/10 08:45:09;;;;;;;7.32;5.32;;;;;;;;;;5034397;28;20044;-78
2023/06/10 08:47:36;;;;;;;8.48;5.65;;;;;;;;;;5040188;28;20494;-79
2023/06/10 08:50:03;;;;;;;6.72;5.00;;;;;;;;;;5027699;28;20053;-79
2023/06/10 08:52:33;;;;;;;7.82;5.20;;;;;;;;;;5029486;28;20045;-78
2023/06/10 08:55:00;;;;;;;8.63;4.82;;;;;;;;;;5022179;28;20046;-78
2023/06/10 08:57:27;;;;;;;8.10;5.13;;;;;;;;;;5036412;28;20045;-78
2023/06/10 08:59:54;;;;;;;6.25;4.80;;;;;;;;;;5029483;28;20088;-78
2023/06/10 09:02:21;;;;;;;8.25;4.85;;;;;;;;;;5025897;28;20107;-78
2023/06/10 09:04:48;;;;;;;7.90;5.43;;;;;;;;;;5029185;28;20041;-78
2023/06/10 09:07:15;;;;;;;9.40;5.53;;;;;;;;;;5032282;28;20049;-78
2023/06/10 09:09:43;;;;;;;10.95;5.82;;;;;;;;;;5034370;28;20037;-79
2023/06/10 09:12:09;;;;;;;9.95;5.38;;;;;;;;;;5033928;28;20042;-78
2023/06/10 09:14:35;;;;;;;7.75;5.28;;;;;;;;;;5034499;28;20095;-78
2023/06/10 09:17:02;;;;;;;7.68;5.55;;;;;;;;;;5034261;28;20052;-78
2023/06/10 09:19:28;;;;;;;7.90;5.20;;;;;;;;;;5034140;28;20037;-78
2023/06/10 09:21:55;;;;;;;12.15;5.72;;;;;;;;;;5045631;28;20129;-78
2023/06/10 09:24:24;;;;;;;10.23;5.20;;;;;;;;;;5034116;28;20511;-79
2023/06/10 09:26:50;;;;;;;9.85;5.28;;;;;;;;;;5033579;28;20091;-78
2023/06/10 09:29:17;;;;;;;9.63;6.05;;;;;;;;;;5033354;28;20041;-78
2023/06/10 09:31:44;;;;;;;9.73;5.38;;;;;;;;;;5023703;28;20530;-78
2023/06/10 09:34:10;;;;;;;10.10;5.32;;;;;;;;;;5035103;28;20488;-79
2023/06/10 09:36:36;;;;;;;7.07;5.05;;;;;;;;;;5033816;28;20515;-79
2023/06/10 09:39:02;;;;;;;8.35;5.40;;;;;;;;;;5034974;28;20075;-79
2023/06/10 09:41:35;;;;;;;7.70;5.20;;;;;;;;;;5029496;28;20488;-78
2023/06/10 09:44:02;;;;;;;8.68;4.97;;;;;;;;;;5035408;28;20041;-78
2023/06/10 09:46:35;;;;;;;8.70;5.50;;;;;;;;;;5033998;28;20042;-79
2023/06/10 09:49:01;;;;;;;9.98;5.47;;;;;;;;;;5029100;28;20407;-79
2023/06/10 09:51:27;;;;;;;8.95;5.63;;;;;;;;;;5021409;28;20083;-79
2023/06/10 09:53:54;;;;;;;12.20;5.57;;;;;;;;;;5035072;28;20049;-79
2023/06/10 09:56:23;;;;;;;9.55;5.88;;;;;;;;;;5022957;28;20038;-78
2023/06/10 09:58:53;;;;;;;10.68;5.95;;;;;;;;;;5037481;28;20049;-79
2023/06/10 10:01:20;;;;;;;8.27;5.95;;;;;;;;;;5039089;28;20038;-79
2023/06/10 10:03:52;;;;;;;11.77;5.97;;;;;;;;;;5026181;28;20483;-79
2023/06/10 10:06:19;;;;;;;10.00;5.80;;;;;;;;;;5020763;28;20526;-79
2023/06/10 10:08:49;;;;;;;9.50;6.28;;;;;;;;;;5032901;28;20049;-79
2023/06/10 10:11:17;;;;;;;8.35;5.20;;;;;;;;;;5024944;28;20124;-78
2023/06/10 10:13:45;;;;;;;11.77;5.53;;;;;;;;;;5030514;28;20128;-78
2023/06/10 10:16:12;;;;;;;11.57;6.70;;;;;;;;;;5032478;28;20042;-79
2023/06/10 10:18:43;;;;;;;12.50;6.50;;;;;;;;;;5031540;28;20054;-79
2023/06/10 10:21:13;;;;;;;8.40;5.45;;;;;;;;;;5025915;28;20045;-79
2023/06/10 10:23:44;;;;;;;10.63;5.50;;;;;;;;;;5034256;28;20068;-79
2023/06/10 10:26:11;;;;;;;9.38;5.97;;;;;;;;;;5034762;28;20439;-79
2023/06/10 10:28:48;;;;;;;9.43;5.75;;;;;;;;;;5033830;28;20149;-79
2023/06/10 10:31:18;;;;;;;11.30;6.20;;;;;;;;;;5049806;28;20057;-79
2023/06/10 10:33:56;;;;;;;11.43;6.80;;;;;;;;;;5031050;28;20073;-79
2023/06/10 10:36:22;;;;;;;9.90;6.90;;;;;;;;;;5011301;28;20104;-79
2023/06/10 10:38:52;;;;;;;8.88;6.03;;;;;;;;;;5026052;28;20108;-79
2023/06/10 10:41:18;;;;;;;11.15;6.40;;;;;;;;;;5025221;28;20069;-79
2023/06/10 10:43:45;;;;;;;10.93;5.90;;;;;;;;;;5029854;28;20077;-79
2023/06/10 10:46:17;;;;;;;9.50;6.65;;;;;;;;;;5038261;28;20041;-79
2023/06/10 10:48:43;;;;;;;9.80;6.57;;;;;;;;;;5025361;28;20120;-79
2023/06/10 10:51:10;;;;;;;9.25;6.70;;;;;;;;;;5034556;28;20068;-79
2023/06/10 10:53:38;;;;;;;10.40;6.75;;;;;;;;;;5027946;28;20057;-79
2023/06/10 10:56:07;;;;;;;8.55;6.90;;;;;;;;;;5032045;28;20053;-78
2023/06/10 10:58:34;;;;;;;10.60;6.53;;;;;;;;;;5027773;28;20053;-78
2023/06/10 11:01:00;;;;;;;11.45;7.00;;;;;;;;;;5037249;28;20042;-78
2023/06/10 11:03:30;;;;;;;12.27;6.60;;;;;;;;;;5041376;28;20140;-78
2023/06/10 11:05:59;;;;;;;9.73;6.30;;;;;;;;;;5033366;28;20052;-78
2023/06/10 11:08:31;;;;;;;10.57;6.72;;;;;;;;;;5019057;28;20136;-78
2023/06/10 11:10:57;;;;;;;8.73;6.60;;;;;;;;;;5041149;28;20067;-78
2023/06/10 11:13:23;;;;;;;9.57;7.32;;;;;;;;;;5044413;28;20037;-78
2023/06/10 11:15:50;;;;;;;10.02;6.68;;;;;;;;;;5036874;28;20047;-78
2023/06/10 11:18:26;;;;;;;9.52;6.57;;;;;;;;;;5032189;28;20041;-78
2023/06/10 11:20:54;;;;;;;10.68;6.05;;;;;;;;;;5039061;28;20420;-81
2023/06/10 11:23:32;;;;;;;10.23;7.22;;;;;;;;;;5044663;28;20044;-79
2023/06/10 11:26:17;;;;;;;9.90;7.05;;;;;;;;;;5038200;28;20096;-79
2023/06/10 11:28:46;;;;;;;10.63;7.32;;;;;;;;;;5036990;28;20111;-79
2023/06/10 11:31:22;;;;;;;10.90;7.95;;;;;;;;;;5039170;28;20053;-79
2023/06/10 11:33:48;;;;;;;15.02;7.60;;;;;;;;;;5046529;28;20055;-79
2023/06/10 11:36:15;;;;;;;13.85;7.63;;;;;;;;;;5042123;28;20083;-79
2023/06/10 11:38:42;;;;;;;13.32;7.90;;;;;;;;;;5056638;28;20048;-79
2023/06/10 11:41:08;;;;;;;11.73;7.57;;;;;;;;;;5056139;28;20102;-79
2023/06/10 11:43:34;;;;;;;10.38;7.78;;;;;;;;;;5055625;28;20521;-79
2023/06/10 11:46:01;;;;;;;12.40;7.57;;;;;;;;;;5038891;28;20037;-79
2023/06/10 11:48:31;;;;;;;10.65;7.35;;;;;;;;;;5040039;28;20101;-79
2023/06/10 11:50:57;;;;;;;14.48;7.55;;;;;;;;;;5041530;28;20041;-79
2023/06/10 11:53:23;;;;;;;12.60;7.25;;;;;;;;;;5042980;28;20361;-79
2023/06/10 11:55:51;;;;;;;13.05;7.70;;;;;;;;;;5040743;28;20080;-80
2023/06/10 11:58:18;;;;;;;13.18;6.90;;;;;;;;;;5052201;28;20041;-79
2023/06/10 12:00:50;;;;;;;10.10;7.20;;;;;;;;;;5058371;28;20038;-81
2023/06/10 12:03:17;;;;;;;10.90;7.05;;;;;;;;;;5043010;28;20053;-79
2023/06/10 12:05:55;;;;;;;13.32;7.28;;;;;;;;;;5040446;28;20037;-79
2023/06/10 12:08:21;;;;;;;14.55;7.80;;;;;;;;;;5039285;28;20178;-79
2023/06/10 12:10:47;;;;;;;12.48;8.05;;;;;;;;;;5044577;28;20107;-79
2023/06/10 12:13:13;;;;;;;13.13;8.45;;;;;;;;;;5044443;28;20084;-78
2023/06/10 12:15:39;;;;;;;12.98;7.65;;;;;;;;;;5035362;28;20068;-78
2023/06/10 12:18:06;;;;;;;13.35;8.00;;;;;;;;;;5034052;28;20053;-78
2023/06/10 12:20:33;;;;;;;12.82;7.03;;;;;;;;;;5044504;28;20056;-78
2023/06/10 12:23:00;;;;;;;11.60;7.32;;;;;;;;;;5046476;28;20037;-78
2023/06/10 12:25:27;;;;;;;14.02;7.95;;;;;;;;;;5021918;28;20057;-78
2023/06/10 12:27:54;;;;;;;12.95;7.30;;;;;;;;;;5050293;28;20040;-78
2023/06/10 12:30:26;;;;;;;10.95;7.13;;;;;;;;;;5035018;28;20095;-78
2023/06/10 12:32:53;;;;;;;11.15;7.32;;;;;;;;;;5032404;28;20092;-78
2023/06/10 12:35:20;;;;;;;13.95;7.10;;;;;;;;;;5052822;28;20053;-78
2023/06/10 12:38:04;;;;;;;12.30;7.97;;;;;;;;;;5051481;28;20052;-78
2023/06/10 12:40:40;;;;;;;17.92;7.35;;;;;;;;;;5043249;28;20088;-78
2023/06/10 12:43:06;;;;;;;12.15;6.75;;;;;;;;;;5033533;28;20403;-78
2023/06/10 12:45:33;;;;;;;15.45;7.65;;;;;;;;;;5033933;28;20048;-78
2023/06/10 12:48:13;;;;;;;12.98;6.65;;;;;;;;;;5038830;28;20068;-80
2023/06/10 12:50:40;;;;;;;12.27;6.30;;;;;;;;;;5040317;28;20443;-78
2023/06/10 12:53:06;;;;;;;10.25;6.03;;;;;;;;;;5019251;28;20522;-78
2023/06/10 12:55:33;;;;;;;10.60;6.43;;;;;;;;;;5012406;28;20064;-78
2023/06/10 12:58:00;;;;;;;13.50;5.68;;;;;;;;;;5012781;28;20053;-78
2023/06/10 13:00:29;;;;;;;12.93;5.40;;;;;;;;;;5036414;28;20057;-78
2023/06/10 13:02:55;;;;;;;11.93;5.30;;;;;;;;;;5033483;28;20119;-78
2023/06/10 13:05:21;;;;;;;10.50;5.32;;;;;;;;;;5033174;28;20053;-78
2023/06/10 13:07:47;;;;;;;13.55;5.70;;;;;;;;;;5032617;28;20073;-78
2023/06/10 13:10:14;;;;;;;14.70;5.70;;;;;;;;;;5037248;28;20037;-78
2023/06/10 13:12:40;;;;;;;11.98;5.85;;;;;;;;;;5051981;28;20052;-78
2023/06/10 13:15:07;;;;;;;12.65;5.53;;;;;;;;;;5038460;28;20048;-77
2023/06/10 13:17:34;;;;;;;13.60;5.60;;;;;;;;;;5048691;28;20049;-77
2023/06/10 13:20:00;;;;;;;11.77;5.28;;;;;;;;;;5051793;28;20076;-77
2023/06/10 13:22:28;;;;;;;11.20;5.03;;;;;;;;;;5050925;28;20131;-77
2023/06/10 13:24:54;;;;;;;11.52;5.43;;;;;;;;;;5033554;28;20057;-78
2023/06/10 13:27:20;;;;;;;10.05;4.95;;;;;;;;;;5037205;28;20041;-78
2023/06/10 13:29:46;;;;;;;11.07;5.40;;;;;;;;;;5039293;28;20045;-79
2023/06/10 13:32:12;;;;;;;9.75;4.85;;;;;;;;;;5034779;28;20108;-78
2023/06/10 13:34:39;;;;;;;10.98;5.10;;;;;;;;;;5036383;28;20053;-78
2023/06/10 13:37:05;;;;;;;10.15;5.13;;;;;;;;;;5034010;28;20049;-78
2023/06/10 13:39:31;;;;;;;10.93;5.45;;;;;;;;;;5033159;28;20034;-77
2023/06/10 13:41:57;;;;;;;11.80;4.88;;;;;;;;;;5033861;28;20064;-77
2023/06/10 13:44:23;;;;;;;9.05;5.18;;;;;;;;;;5046104;28;20403;-78
2023/06/10 13:46:49;;;;;;;8.32;5.18;;;;;;;;;;5053154;28;20047;-78
2023/06/10 13:49:15;;;;;;;10.85;5.65;;;;;;;;;;5052731;28;20045;-78
2023/06/10 13:51:41;;;;;;;15.45;5.60;;;;;;;;;;5039487;28;20045;-78
2023/06/10 13:54:07;;;;;;;12.07;5.32;;;;;;;;;;5033020;28;20099;-78
2023/06/10 13:56:37;;;;;;;14.05;5.28;;;;;;;;;;5053390;28;20146;-78
2023/06/10 13:59:04;;;;;;;16.77;5.90;;;;;;;;;;5036751;28;20535;-78
2023/06/10 14:01:30;;;;;;;10.27;5.18;;;;;;;;;;5033916;28;20048;-78
2023/06/10 14:03:56;;;;;;;13.77;5.40;;;;;;;;;;5034301;28;20038;-80
2023/06/10 14:06:22;;;;;;;11.45;5.70;;;;;;;;;;5043721;28;20064;-79
2023/06/10 14:08:48;;;;;;;13.90;5.30;;;;;;;;;;5041297;28;20050;-81
2023/06/10 14:11:14;;;;;;;12.27;5.53;;;;;;;;;;5034231;28;20119;-79
2023/06/10 14:13:40;;;;;;;12.07;5.15;;;;;;;;;;5061081;28;20048;-80
2023/06/10 14:16:07;;;;;;;11.75;5.43;;;;;;;;;;5036402;28;20076;-78
2023/06/10 14:18:33;;;;;;;10.82;5.32;;;;;;;;;;5034188;28;20042;-78
2023/06/10 14:20:59;;;;;;;12.02;5.85;;;;;;;;;;5021756;28;20042;-79
2023/06/10 14:23:26;;;;;;;12.05;6.03;;;;;;;;;;5033759;28;20037;-79
2023/06/10 14:25:52;;;;;;;10.88;5.35;;;;;;;;;;5042448;28;20045;-79
2023/06/10 14:28:18;;;;;;;11.02;6.10;;;;;;;;;;5047069;28;20056;-79
2023/06/10 14:30:44;;;;;;;12.65;4.82;;;;;;;;;;5043829;28;20052;-79
2023/06/10 14:33:10;;;;;;;12.38;5.50;;;;;;;;;;5044698;28;20057;-79